sensor_id;sensor_type;location;lat;lon;timestamp;temperature;humidity
44533;DHT22;48673;53.016;-2.258;2022-09-09T00:00:17;12.80;90.40
44533;DHT22;48673;53.016;-2.258;2022-09-09T00:03:19;12.80;90.50
44533;DHT22;48673;53.016;-2.258;2022-09-09T00:06:04;12.90;90.50
44533;DHT22;48673;53.016;-2.258;2022-09-09T00:09:13;12.80;90.40
44533;DHT22;48673;53.016;-2.258;2022-09-09T00:11:47;12.80;90.40
44533;DHT22;48673;53.016;-2.258;2022-09-09T00:14:26;12.80;90.40
44533;DHT22;48673;53.016;-2.258;2022-09-09T00:17:17;12.80;90.50
44533;DHT22;48673;53.016;-2.258;2022-09-09T00:23:34;12.80;90.70
44533;DHT22;48673;53.016;-2.258;2022-09-09T00:31:37;13.10;90.60
44533;DHT22;48673;53.016;-2.258;2022-09-09T00:34:18;13.10;90.60
44533;DHT22;48673;53.016;-2.258;2022-09-09T00:36:49;13.20;90.80
44533;DHT22;48673;53.016;-2.258;2022-09-09T00:39:42;13.20;90.60
44533;DHT22;48673;53.016;-2.258;2022-09-09T00:42:14;13.30;90.70
44533;DHT22;48673;53.016;-2.258;2022-09-09T00:47:50;13.40;90.70
44533;DHT22;48673;53.016;-2.258;2022-09-09T00:53:39;13.30;90.70
44533;DHT22;48673;53.016;-2.258;2022-09-09T00:56:13;13.40;90.70
44533;DHT22;48673;53.016;-2.258;2022-09-09T00:59:00;13.40;90.60
44533;DHT22;48673;53.016;-2.258;2022-09-09T01:01:30;13.40;90.70
44533;DHT22;48673;53.016;-2.258;2022-09-09T01:03:58;13.50;90.70
44533;DHT22;48673;53.016;-2.258;2022-09-09T01:06:34;13.50;90.70
44533;DHT22;48673;53.016;-2.258;2022-09-09T01:15:09;13.60;90.80
44533;DHT22;48673;53.016;-2.258;2022-09-09T01:20:46;13.70;90.80
44533;DHT22;48673;53.016;-2.258;2022-09-09T01:26:51;13.70;90.80
44533;DHT22;48673;53.016;-2.258;2022-09-09T01:29:04;13.80;90.80
44533;DHT22;48673;53.016;-2.258;2022-09-09T01:34:23;13.90;90.80
44533;DHT22;48673;53.016;-2.258;2022-09-09T01:37:08;13.80;90.80
44533;DHT22;48673;53.016;-2.258;2022-09-09T01:39:41;13.90;90.90
44533;DHT22;48673;53.016;-2.258;2022-09-09T01:42:16;13.90;90.80
44533;DHT22;48673;53.016;-2.258;2022-09-09T01:44:45;13.90;90.80
44533;DHT22;48673;53.016;-2.258;2022-09-09T01:47:15;14.00;90.80
44533;DHT22;48673;53.016;-2.258;2022-09-09T01:50:03;14.10;90.80
44533;DHT22;48673;53.016;-2.258;2022-09-09T01:52:32;14.10;90.70
44533;DHT22;48673;53.016;-2.258;2022-09-09T01:55:06;14.20;90.60
44533;DHT22;48673;53.016;-2.258;2022-09-09T02:00:31;14.30;90.60
44533;DHT22;48673;53.016;-2.258;2022-09-09T02:03:08;14.30;90.50
44533;DHT22;48673;53.016;-2.258;2022-09-09T02:08:33;14.30;90.50
44533;DHT22;48673;53.016;-2.258;2022-09-09T02:11:13;14.40;90.50
44533;DHT22;48673;53.016;-2.258;2022-09-09T02:13:51;14.40;90.50
44533;DHT22;48673;53.016;-2.258;2022-09-09T02:16:41;14.40;90.40
44533;DHT22;48673;53.016;-2.258;2022-09-09T02:19:27;14.40;90.40
44533;DHT22;48673;53.016;-2.258;2022-09-09T02:22:19;14.40;90.40
44533;DHT22;48673;53.016;-2.258;2022-09-09T02:24:50;14.40;90.30
44533;DHT22;48673;53.016;-2.258;2022-09-09T02:27:24;14.40;90.30
44533;DHT22;48673;53.016;-2.258;2022-09-09T02:29:54;14.40;90.30
44533;DHT22;48673;53.016;-2.258;2022-09-09T02:32:36;14.40;90.40
44533;DHT22;48673;53.016;-2.258;2022-09-09T02:35:09;14.40;90.40
44533;DHT22;48673;53.016;-2.258;2022-09-09T02:37:42;14.40;90.50
44533;DHT22;48673;53.016;-2.258;2022-09-09T02:40:12;14.40;90.50
44533;DHT22;48673;53.016;-2.258;2022-09-09T02:42:46;14.40;90.50
44533;DHT22;48673;53.016;-2.258;2022-09-09T02:45:18;14.40;90.50
44533;DHT22;48673;53.016;-2.258;2022-09-09T02:50:39;14.50;90.50
44533;DHT22;48673;53.016;-2.258;2022-09-09T02:53:17;14.50;90.40
44533;DHT22;48673;53.016;-2.258;2022-09-09T02:55:47;14.50;90.30
44533;DHT22;48673;53.016;-2.258;2022-09-09T02:58:19;14.60;90.20
44533;DHT22;48673;53.016;-2.258;2022-09-09T03:00:58;14.60;90.20
44533;DHT22;48673;53.016;-2.258;2022-09-09T03:03:29;14.60;90.20
44533;DHT22;48673;53.016;-2.258;2022-09-09T03:06:01;14.60;90.10
44533;DHT22;48673;53.016;-2.258;2022-09-09T03:08:31;14.60;90.00
44533;DHT22;48673;53.016;-2.258;2022-09-09T03:11:04;14.60;90.00
44533;DHT22;48673;53.016;-2.258;2022-09-09T03:13:35;14.70;90.00
44533;DHT22;48673;53.016;-2.258;2022-09-09T03:16:02;14.70;90.00
44533;DHT22;48673;53.016;-2.258;2022-09-09T03:18:35;14.80;89.90
44533;DHT22;48673;53.016;-2.258;2022-09-09T03:21:03;14.80;89.90
44533;DHT22;48673;53.016;-2.258;2022-09-09T03:23:31;14.80;89.90
44533;DHT22;48673;53.016;-2.258;2022-09-09T03:26:02;14.80;89.80
44533;DHT22;48673;53.016;-2.258;2022-09-09T03:28:39;14.70;89.80
44533;DHT22;48673;53.016;-2.258;2022-09-09T03:31:07;14.80;89.90
44533;DHT22;48673;53.016;-2.258;2022-09-09T03:33:41;14.70;89.90
44533;DHT22;48673;53.016;-2.258;2022-09-09T03:36:13;14.70;89.90
44533;DHT22;48673;53.016;-2.258;2022-09-09T03:38:41;14.80;90.00
44533;DHT22;48673;53.016;-2.258;2022-09-09T03:41:10;14.70;89.90
44533;DHT22;48673;53.016;-2.258;2022-09-09T03:43:39;14.80;90.00
44533;DHT22;48673;53.016;-2.258;2022-09-09T03:46:06;14.80;89.90
44533;DHT22;48673;53.016;-2.258;2022-09-09T03:48:34;14.80;89.90
44533;DHT22;48673;53.016;-2.258;2022-09-09T03:51:04;14.80;89.80
44533;DHT22;48673;53.016;-2.258;2022-09-09T03:53:33;14.80;89.80
44533;DHT22;48673;53.016;-2.258;2022-09-09T03:56:05;14.80;89.70
44533;DHT22;48673;53.016;-2.258;2022-09-09T03:58:34;14.80;89.60
44533;DHT22;48673;53.016;-2.258;2022-09-09T04:01:09;14.80;89.50
44533;DHT22;48673;53.016;-2.258;2022-09-09T04:03:39;14.90;89.40
44533;DHT22;48673;53.016;-2.258;2022-09-09T04:06:12;14.80;89.40
44533;DHT22;48673;53.016;-2.258;2022-09-09T04:08:45;14.80;89.40
44533;DHT22;48673;53.016;-2.258;2022-09-09T04:11:14;14.80;89.30
44533;DHT22;48673;53.016;-2.258;2022-09-09T04:13:44;14.80;89.30
44533;DHT22;48673;53.016;-2.258;2022-09-09T04:16:13;14.80;89.30
44533;DHT22;48673;53.016;-2.258;2022-09-09T04:18:43;14.80;89.30
44533;DHT22;48673;53.016;-2.258;2022-09-09T04:21:13;14.70;89.30
44533;DHT22;48673;53.016;-2.258;2022-09-09T04:23:43;14.70;89.30
44533;DHT22;48673;53.016;-2.258;2022-09-09T04:26:11;14.70;89.30
44533;DHT22;48673;53.016;-2.258;2022-09-09T04:28:40;14.70;89.30
44533;DHT22;48673;53.016;-2.258;2022-09-09T04:31:20;14.70;89.40
44533;DHT22;48673;53.016;-2.258;2022-09-09T04:33:53;14.70;89.40
44533;DHT22;48673;53.016;-2.258;2022-09-09T04:36:22;14.70;89.40
44533;DHT22;48673;53.016;-2.258;2022-09-09T04:38:54;14.70;89.40
44533;DHT22;48673;53.016;-2.258;2022-09-09T04:41:22;14.70;89.40
44533;DHT22;48673;53.016;-2.258;2022-09-09T04:43:52;14.60;89.40
44533;DHT22;48673;53.016;-2.258;2022-09-09T04:46:21;14.60;89.40
44533;DHT22;48673;53.016;-2.258;2022-09-09T04:48:51;14.60;89.40
44533;DHT22;48673;53.016;-2.258;2022-09-09T04:51:22;14.60;89.50
44533;DHT22;48673;53.016;-2.258;2022-09-09T04:53:51;14.60;89.50
44533;DHT22;48673;53.016;-2.258;2022-09-09T04:56:21;14.60;89.60
44533;DHT22;48673;53.016;-2.258;2022-09-09T04:58:55;14.60;89.70
44533;DHT22;48673;53.016;-2.258;2022-09-09T05:01:31;14.60;89.80
44533;DHT22;48673;53.016;-2.258;2022-09-09T05:04:02;14.60;89.90
44533;DHT22;48673;53.016;-2.258;2022-09-09T05:06:33;14.60;89.90
44533;DHT22;48673;53.016;-2.258;2022-09-09T05:09:03;14.60;89.90
44533;DHT22;48673;53.016;-2.258;2022-09-09T05:11:32;14.60;89.90
44533;DHT22;48673;53.016;-2.258;2022-09-09T05:14:26;14.60;89.90
44533;DHT22;48673;53.016;-2.258;2022-09-09T05:16:54;14.60;89.90
44533;DHT22;48673;53.016;-2.258;2022-09-09T05:19:24;14.50;89.80
44533;DHT22;48673;53.016;-2.258;2022-09-09T05:21:53;14.50;89.90
44533;DHT22;48673;53.016;-2.258;2022-09-09T05:24:27;14.50;89.90
44533;DHT22;48673;53.016;-2.258;2022-09-09T05:27:02;14.50;89.90
44533;DHT22;48673;53.016;-2.258;2022-09-09T05:29:30;14.50;89.90
44533;DHT22;48673;53.016;-2.258;2022-09-09T05:32:03;14.50;89.90
44533;DHT22;48673;53.016;-2.258;2022-09-09T05:34:31;14.50;90.00
44533;DHT22;48673;53.016;-2.258;2022-09-09T05:37:00;14.50;90.00
44533;DHT22;48673;53.016;-2.258;2022-09-09T05:39:28;14.50;90.10
44533;DHT22;48673;53.016;-2.258;2022-09-09T05:41:56;14.50;90.20
44533;DHT22;48673;53.016;-2.258;2022-09-09T05:44:26;14.40;90.20
44533;DHT22;48673;53.016;-2.258;2022-09-09T05:46:55;14.40;90.40
44533;DHT22;48673;53.016;-2.258;2022-09-09T05:49:33;14.50;90.50
44533;DHT22;48673;53.016;-2.258;2022-09-09T05:52:02;14.50;90.60
44533;DHT22;48673;53.016;-2.258;2022-09-09T05:54:34;14.50;90.60
44533;DHT22;48673;53.016;-2.258;2022-09-09T05:57:02;14.50;90.60
44533;DHT22;48673;53.016;-2.258;2022-09-09T05:59:30;14.60;90.60
44533;DHT22;48673;53.016;-2.258;2022-09-09T06:02:00;14.60;90.60
44533;DHT22;48673;53.016;-2.258;2022-09-09T06:04:34;14.60;90.50
44533;DHT22;48673;53.016;-2.258;2022-09-09T06:07:04;14.60;90.50
44533;DHT22;48673;53.016;-2.258;2022-09-09T06:09:32;14.60;90.50
44533;DHT22;48673;53.016;-2.258;2022-09-09T06:12:02;14.60;90.40
44533;DHT22;48673;53.016;-2.258;2022-09-09T06:14:35;14.60;90.40
44533;DHT22;48673;53.016;-2.258;2022-09-09T06:17:11;14.70;90.40
44533;DHT22;48673;53.016;-2.258;2022-09-09T06:19:41;14.80;90.30
44533;DHT22;48673;53.016;-2.258;2022-09-09T06:22:09;14.80;90.10
44533;DHT22;48673;53.016;-2.258;2022-09-09T06:24:39;14.80;90.00
44533;DHT22;48673;53.016;-2.258;2022-09-09T06:27:08;14.80;89.90
44533;DHT22;48673;53.016;-2.258;2022-09-09T06:29:36;14.80;89.70
44533;DHT22;48673;53.016;-2.258;2022-09-09T06:32:07;14.70;89.70
44533;DHT22;48673;53.016;-2.258;2022-09-09T06:34:36;14.80;89.90
44533;DHT22;48673;53.016;-2.258;2022-09-09T06:37:04;14.80;89.90
44533;DHT22;48673;53.016;-2.258;2022-09-09T06:39:41;14.80;90.10
44533;DHT22;48673;53.016;-2.258;2022-09-09T06:42:10;14.90;90.10
44533;DHT22;48673;53.016;-2.258;2022-09-09T06:44:50;15.10;90.00
44533;DHT22;48673;53.016;-2.258;2022-09-09T06:47:31;15.20;89.80
44533;DHT22;48673;53.016;-2.258;2022-09-09T06:50:01;15.20;89.60
44533;DHT22;48673;53.016;-2.258;2022-09-09T06:52:32;15.30;89.40
44533;DHT22;48673;53.016;-2.258;2022-09-09T06:55:01;15.30;89.20
44533;DHT22;48673;53.016;-2.258;2022-09-09T06:57:29;15.30;89.10
44533;DHT22;48673;53.016;-2.258;2022-09-09T07:00:09;15.30;89.00
44533;DHT22;48673;53.016;-2.258;2022-09-09T07:02:37;15.40;88.90
44533;DHT22;48673;53.016;-2.258;2022-09-09T07:05:08;15.40;88.90
44533;DHT22;48673;53.016;-2.258;2022-09-09T07:07:37;15.40;88.70
44533;DHT22;48673;53.016;-2.258;2022-09-09T07:10:06;15.50;88.60
44533;DHT22;48673;53.016;-2.258;2022-09-09T07:12:36;15.60;88.60
44533;DHT22;48673;53.016;-2.258;2022-09-09T07:15:09;15.70;88.40
44533;DHT22;48673;53.016;-2.258;2022-09-09T07:17:40;15.80;88.30
44533;DHT22;48673;53.016;-2.258;2022-09-09T07:20:08;15.70;88.00
44533;DHT22;48673;53.016;-2.258;2022-09-09T07:22:36;15.80;88.00
44533;DHT22;48673;53.016;-2.258;2022-09-09T07:25:04;15.80;88.00
44533;DHT22;48673;53.016;-2.258;2022-09-09T07:27:33;15.90;87.90
44533;DHT22;48673;53.016;-2.258;2022-09-09T07:30:00;15.90;87.80
44533;DHT22;48673;53.016;-2.258;2022-09-09T07:32:32;15.90;87.70
44533;DHT22;48673;53.016;-2.258;2022-09-09T07:35:00;16.00;87.60
44533;DHT22;48673;53.016;-2.258;2022-09-09T07:37:29;16.10;87.40
44533;DHT22;48673;53.016;-2.258;2022-09-09T07:39:57;16.20;87.30
44533;DHT22;48673;53.016;-2.258;2022-09-09T07:42:26;16.30;87.10
44533;DHT22;48673;53.016;-2.258;2022-09-09T07:44:54;16.40;87.00
44533;DHT22;48673;53.016;-2.258;2022-09-09T07:47:22;16.40;86.70
44533;DHT22;48673;53.016;-2.258;2022-09-09T07:49:52;16.50;86.50
44533;DHT22;48673;53.016;-2.258;2022-09-09T07:52:25;16.50;86.40
44533;DHT22;48673;53.016;-2.258;2022-09-09T07:54:56;16.50;86.20
44533;DHT22;48673;53.016;-2.258;2022-09-09T07:57:26;16.50;86.10
44533;DHT22;48673;53.016;-2.258;2022-09-09T07:59:55;16.50;85.90
44533;DHT22;48673;53.016;-2.258;2022-09-09T08:02:25;16.40;86.10
44533;DHT22;48673;53.016;-2.258;2022-09-09T08:04:55;16.40;86.10
44533;DHT22;48673;53.016;-2.258;2022-09-09T08:07:24;16.40;86.00
44533;DHT22;48673;53.016;-2.258;2022-09-09T08:09:54;16.40;86.10
44533;DHT22;48673;53.016;-2.258;2022-09-09T08:12:28;16.40;86.20
44533;DHT22;48673;53.016;-2.258;2022-09-09T08:14:57;16.40;86.30
44533;DHT22;48673;53.016;-2.258;2022-09-09T08:17:29;16.40;86.30
44533;DHT22;48673;53.016;-2.258;2022-09-09T08:20:00;16.40;86.20
44533;DHT22;48673;53.016;-2.258;2022-09-09T08:22:34;16.40;86.20
44533;DHT22;48673;53.016;-2.258;2022-09-09T08:25:02;16.40;86.30
44533;DHT22;48673;53.016;-2.258;2022-09-09T08:27:35;16.50;86.30
44533;DHT22;48673;53.016;-2.258;2022-09-09T08:30:05;16.60;86.30
44533;DHT22;48673;53.016;-2.258;2022-09-09T08:32:32;16.70;86.20
44533;DHT22;48673;53.016;-2.258;2022-09-09T08:35:03;16.90;85.90
44533;DHT22;48673;53.016;-2.258;2022-09-09T08:37:36;16.90;85.70
44533;DHT22;48673;53.016;-2.258;2022-09-09T08:40:05;16.90;85.40
44533;DHT22;48673;53.016;-2.258;2022-09-09T08:42:48;17.00;85.30
44533;DHT22;48673;53.016;-2.258;2022-09-09T08:45:57;17.10;85.00
44533;DHT22;48673;53.016;-2.258;2022-09-09T08:48:34;17.30;84.80
44533;DHT22;48673;53.016;-2.258;2022-09-09T08:51:06;17.30;84.50
44533;DHT22;48673;53.016;-2.258;2022-09-09T08:53:48;17.40;84.50
44533;DHT22;48673;53.016;-2.258;2022-09-09T08:56:20;17.50;84.20
44533;DHT22;48673;53.016;-2.258;2022-09-09T08:58:54;17.60;84.10
44533;DHT22;48673;53.016;-2.258;2022-09-09T09:07:07;17.50;83.50
44533;DHT22;48673;53.016;-2.258;2022-09-09T09:12:18;17.50;83.40
44533;DHT22;48673;53.016;-2.258;2022-09-09T09:14:48;17.50;83.40
44533;DHT22;48673;53.016;-2.258;2022-09-09T09:17:19;17.60;83.50
44533;DHT22;48673;53.016;-2.258;2022-09-09T09:19:49;17.70;83.40
44533;DHT22;48673;53.016;-2.258;2022-09-09T09:22:38;17.80;83.30
44533;DHT22;48673;53.016;-2.258;2022-09-09T09:27:40;17.90;82.60
44533;DHT22;48673;53.016;-2.258;2022-09-09T09:30:20;17.90;82.50
44533;DHT22;48673;53.016;-2.258;2022-09-09T09:35:39;18.10;82.20
44533;DHT22;48673;53.016;-2.258;2022-09-09T09:38:18;18.20;82.20
44533;DHT22;48673;53.016;-2.258;2022-09-09T09:41:06;18.30;81.70
44533;DHT22;48673;53.016;-2.258;2022-09-09T09:43:36;18.40;81.30
44533;DHT22;48673;53.016;-2.258;2022-09-09T09:46:23;18.40;80.80
44533;DHT22;48673;53.016;-2.258;2022-09-09T09:49:05;18.50;80.00
44533;DHT22;48673;53.016;-2.258;2022-09-09T09:51:34;18.60;79.80
44533;DHT22;48673;53.016;-2.258;2022-09-09T09:54:22;18.60;79.50
44533;DHT22;48673;53.016;-2.258;2022-09-09T09:56:55;18.70;79.20
44533;DHT22;48673;53.016;-2.258;2022-09-09T10:04:46;19.10;78.20
44533;DHT22;48673;53.016;-2.258;2022-09-09T10:07:20;19.20;77.80
44533;DHT22;48673;53.016;-2.258;2022-09-09T10:09:54;19.10;77.10
44533;DHT22;48673;53.016;-2.258;2022-09-09T10:23:29;18.70;77.70
44533;DHT22;48673;53.016;-2.258;2022-09-09T10:36:46;18.70;77.60
44533;DHT22;48673;53.016;-2.258;2022-09-09T10:39:35;18.90;77.60
44533;DHT22;48673;53.016;-2.258;2022-09-09T10:42:12;19.00;77.20
44533;DHT22;48673;53.016;-2.258;2022-09-09T10:45:08;19.10;76.40
44533;DHT22;48673;53.016;-2.258;2022-09-09T10:48:28;19.20;76.30
44533;DHT22;48673;53.016;-2.258;2022-09-09T10:54:17;19.40;75.50
44533;DHT22;48673;53.016;-2.258;2022-09-09T10:56:54;19.50;75.10
44533;DHT22;48673;53.016;-2.258;2022-09-09T10:59:28;19.50;75.00
44533;DHT22;48673;53.016;-2.258;2022-09-09T11:04:50;19.40;74.60
44533;DHT22;48673;53.016;-2.258;2022-09-09T11:07:36;19.30;74.70
44533;DHT22;48673;53.016;-2.258;2022-09-09T11:13:17;19.00;74.90
44533;DHT22;48673;53.016;-2.258;2022-09-09T11:16:01;18.90;75.20
44533;DHT22;48673;53.016;-2.258;2022-09-09T11:18:37;18.90;75.10
44533;DHT22;48673;53.016;-2.258;2022-09-09T11:21:14;19.00;75.20
44533;DHT22;48673;53.016;-2.258;2022-09-09T11:23:49;19.00;75.20
44533;DHT22;48673;53.016;-2.258;2022-09-09T11:26:30;19.20;75.20
44533;DHT22;48673;53.016;-2.258;2022-09-09T11:42:22;19.90;72.50
44533;DHT22;48673;53.016;-2.258;2022-09-09T11:44:51;19.90;72.20
44533;DHT22;48673;53.016;-2.258;2022-09-09T11:47:25;19.90;72.10
44533;DHT22;48673;53.016;-2.258;2022-09-09T11:52:45;20.40;71.20
44533;DHT22;48673;53.016;-2.258;2022-09-09T11:55:34;20.60;70.50
44533;DHT22;48673;53.016;-2.258;2022-09-09T12:00:44;21.00;68.90
44533;DHT22;48673;53.016;-2.258;2022-09-09T12:06:14;21.40;67.40
44533;DHT22;48673;53.016;-2.258;2022-09-09T12:08:49;21.40;66.90
44533;DHT22;48673;53.016;-2.258;2022-09-09T12:11:25;21.40;66.60
44533;DHT22;48673;53.016;-2.258;2022-09-09T12:13:58;21.10;66.60
44533;DHT22;48673;53.016;-2.258;2022-09-09T12:16:37;20.90;67.10
44533;DHT22;48673;53.016;-2.258;2022-09-09T12:22:01;20.90;67.20
44533;DHT22;48673;53.016;-2.258;2022-09-09T12:24:46;20.90;67.10
44533;DHT22;48673;53.016;-2.258;2022-09-09T12:27:27;20.80;66.40
44533;DHT22;48673;53.016;-2.258;2022-09-09T12:30:01;20.70;65.90
44533;DHT22;48673;53.016;-2.258;2022-09-09T12:32:30;20.70;66.10
44533;DHT22;48673;53.016;-2.258;2022-09-09T12:35:11;20.80;65.90
44533;DHT22;48673;53.016;-2.258;2022-09-09T12:38:01;21.10;64.80
44533;DHT22;48673;53.016;-2.258;2022-09-09T12:40:32;21.40;63.90
44533;DHT22;48673;53.016;-2.258;2022-09-09T12:43:20;21.50;63.20
44533;DHT22;48673;53.016;-2.258;2022-09-09T12:45:50;21.60;62.80
44533;DHT22;48673;53.016;-2.258;2022-09-09T12:48:36;21.60;62.90
44533;DHT22;48673;53.016;-2.258;2022-09-09T12:51:28;21.80;63.20
44533;DHT22;48673;53.016;-2.258;2022-09-09T12:53:58;21.90;62.90
44533;DHT22;48673;53.016;-2.258;2022-09-09T12:56:29;21.90;62.30
44533;DHT22;48673;53.016;-2.258;2022-09-09T12:58:58;21.70;62.50
44533;DHT22;48673;53.016;-2.258;2022-09-09T13:01:28;22.00;62.30
44533;DHT22;48673;53.016;-2.258;2022-09-09T13:03:57;22.50;62.00
44533;DHT22;48673;53.016;-2.258;2022-09-09T13:06:28;23.30;60.90
44533;DHT22;48673;53.016;-2.258;2022-09-09T13:08:58;23.80;58.50
44533;DHT22;48673;53.016;-2.258;2022-09-09T13:11:36;24.30;57.00
44533;DHT22;48673;53.016;-2.258;2022-09-09T13:14:06;24.80;55.00
44533;DHT22;48673;53.016;-2.258;2022-09-09T13:16:35;25.30;54.10
44533;DHT22;48673;53.016;-2.258;2022-09-09T13:19:14;25.00;54.70
44533;DHT22;48673;53.016;-2.258;2022-09-09T13:21:43;23.40;58.00
44533;DHT22;48673;53.016;-2.258;2022-09-09T13:24:33;21.70;62.10
44533;DHT22;48673;53.016;-2.258;2022-09-09T13:27:21;20.20;67.00
44533;DHT22;48673;53.016;-2.258;2022-09-09T13:29:53;19.20;70.60
44533;DHT22;48673;53.016;-2.258;2022-09-09T13:32:27;18.30;74.20
44533;DHT22;48673;53.016;-2.258;2022-09-09T13:34:59;17.70;76.20
44533;DHT22;48673;53.016;-2.258;2022-09-09T13:37:35;17.40;78.20
44533;DHT22;48673;53.016;-2.258;2022-09-09T13:40:05;17.00;80.10
44533;DHT22;48673;53.016;-2.258;2022-09-09T13:42:38;16.80;81.00
44533;DHT22;48673;53.016;-2.258;2022-09-09T13:45:18;16.70;82.00
44533;DHT22;48673;53.016;-2.258;2022-09-09T13:47:47;16.60;83.00
44533;DHT22;48673;53.016;-2.258;2022-09-09T13:50:27;16.50;83.20
44533;DHT22;48673;53.016;-2.258;2022-09-09T13:52:57;16.40;83.90
44533;DHT22;48673;53.016;-2.258;2022-09-09T13:55:27;16.40;84.20
44533;DHT22;48673;53.016;-2.258;2022-09-09T13:58:00;16.20;84.60
44533;DHT22;48673;53.016;-2.258;2022-09-09T14:00:32;16.20;85.10
44533;DHT22;48673;53.016;-2.258;2022-09-09T14:03:00;16.20;85.40
44533;DHT22;48673;53.016;-2.258;2022-09-09T14:05:32;16.10;85.60
44533;DHT22;48673;53.016;-2.258;2022-09-09T14:08:00;16.20;86.00
44533;DHT22;48673;53.016;-2.258;2022-09-09T14:10:28;16.20;86.10
44533;DHT22;48673;53.016;-2.258;2022-09-09T14:12:57;16.30;86.40
44533;DHT22;48673;53.016;-2.258;2022-09-09T14:15:25;16.40;86.70
44533;DHT22;48673;53.016;-2.258;2022-09-09T14:17:55;16.40;86.60
44533;DHT22;48673;53.016;-2.258;2022-09-09T14:20:23;16.40;86.60
44533;DHT22;48673;53.016;-2.258;2022-09-09T14:22:51;16.40;86.60
44533;DHT22;48673;53.016;-2.258;2022-09-09T14:25:18;16.40;86.60
44533;DHT22;48673;53.016;-2.258;2022-09-09T14:27:48;16.40;86.50
44533;DHT22;48673;53.016;-2.258;2022-09-09T14:30:16;16.30;86.60
44533;DHT22;48673;53.016;-2.258;2022-09-09T14:32:46;16.30;86.60
44533;DHT22;48673;53.016;-2.258;2022-09-09T14:35:16;16.30;86.70
44533;DHT22;48673;53.016;-2.258;2022-09-09T14:37:49;16.30;86.90
44533;DHT22;48673;53.016;-2.258;2022-09-09T14:40:17;16.30;86.90
44533;DHT22;48673;53.016;-2.258;2022-09-09T14:42:45;16.30;87.00
44533;DHT22;48673;53.016;-2.258;2022-09-09T14:45:13;16.30;86.90
44533;DHT22;48673;53.016;-2.258;2022-09-09T14:47:41;16.30;87.00
44533;DHT22;48673;53.016;-2.258;2022-09-09T14:50:09;16.40;87.10
44533;DHT22;48673;53.016;-2.258;2022-09-09T14:52:37;16.50;87.20
44533;DHT22;48673;53.016;-2.258;2022-09-09T14:55:05;16.80;87.50
44533;DHT22;48673;53.016;-2.258;2022-09-09T14:57:33;17.40;87.90
44533;DHT22;48673;53.016;-2.258;2022-09-09T15:00:03;18.40;87.30
44533;DHT22;48673;53.016;-2.258;2022-09-09T15:02:33;19.50;86.30
44533;DHT22;48673;53.016;-2.258;2022-09-09T15:05:03;20.60;83.30
44533;DHT22;48673;53.016;-2.258;2022-09-09T15:07:31;20.90;80.30
44533;DHT22;48673;53.016;-2.258;2022-09-09T15:09:59;20.90;79.50
44533;DHT22;48673;53.016;-2.258;2022-09-09T15:12:28;20.70;78.70
44533;DHT22;48673;53.016;-2.258;2022-09-09T15:14:56;20.60;78.70
44533;DHT22;48673;53.016;-2.258;2022-09-09T15:17:24;21.20;78.90
44533;DHT22;48673;53.016;-2.258;2022-09-09T15:19:53;22.00;77.60
44533;DHT22;48673;53.016;-2.258;2022-09-09T15:22:22;22.90;76.10
44533;DHT22;48673;53.016;-2.258;2022-09-09T15:24:50;23.90;73.70
44533;DHT22;48673;53.016;-2.258;2022-09-09T15:27:18;24.50;71.50
44533;DHT22;48673;53.016;-2.258;2022-09-09T15:29:46;25.40;69.10
44533;DHT22;48673;53.016;-2.258;2022-09-09T15:32:14;25.90;64.70
44533;DHT22;48673;53.016;-2.258;2022-09-09T15:34:42;25.90;63.10
44533;DHT22;48673;53.016;-2.258;2022-09-09T15:37:10;25.50;63.20
44533;DHT22;48673;53.016;-2.258;2022-09-09T15:39:40;24.90;63.60
44533;DHT22;48673;53.016;-2.258;2022-09-09T15:42:08;24.00;64.90
44533;DHT22;48673;53.016;-2.258;2022-09-09T15:44:40;23.20;66.50
44533;DHT22;48673;53.016;-2.258;2022-09-09T15:47:13;22.60;67.60
44533;DHT22;48673;53.016;-2.258;2022-09-09T15:49:40;22.00;68.90
44533;DHT22;48673;53.016;-2.258;2022-09-09T15:52:10;21.60;70.10
44533;DHT22;48673;53.016;-2.258;2022-09-09T15:54:38;21.30;71.00
44533;DHT22;48673;53.016;-2.258;2022-09-09T15:57:09;21.00;71.80
44533;DHT22;48673;53.016;-2.258;2022-09-09T15:59:41;21.00;72.40
44533;DHT22;48673;53.016;-2.258;2022-09-09T16:02:11;21.20;72.90
44533;DHT22;48673;53.016;-2.258;2022-09-09T16:04:53;21.90;72.80
44533;DHT22;48673;53.016;-2.258;2022-09-09T16:07:20;22.40;71.70
44533;DHT22;48673;53.016;-2.258;2022-09-09T16:09:48;22.20;69.20
44533;DHT22;48673;53.016;-2.258;2022-09-09T16:12:18;21.60;68.90
44533;DHT22;48673;53.016;-2.258;2022-09-09T16:14:47;20.80;69.70
44533;DHT22;48673;53.016;-2.258;2022-09-09T16:17:21;19.70;71.20
44533;DHT22;48673;53.016;-2.258;2022-09-09T16:19:53;18.70;73.60
44533;DHT22;48673;53.016;-2.258;2022-09-09T16:22:25;17.90;75.40
44533;DHT22;48673;53.016;-2.258;2022-09-09T16:25:06;17.10;77.40
44533;DHT22;48673;53.016;-2.258;2022-09-09T16:27:39;16.40;79.30
44533;DHT22;48673;53.016;-2.258;2022-09-09T16:30:08;16.00;80.60
44533;DHT22;48673;53.016;-2.258;2022-09-09T16:32:35;15.70;81.70
44533;DHT22;48673;53.016;-2.258;2022-09-09T16:35:06;15.40;82.60
44533;DHT22;48673;53.016;-2.258;2022-09-09T16:37:34;15.30;83.50
44533;DHT22;48673;53.016;-2.258;2022-09-09T16:40:10;15.20;84.00
44533;DHT22;48673;53.016;-2.258;2022-09-09T16:42:41;15.10;84.30
44533;DHT22;48673;53.016;-2.258;2022-09-09T16:45:14;15.00;84.80
44533;DHT22;48673;53.016;-2.258;2022-09-09T16:48:01;14.90;85.30
44533;DHT22;48673;53.016;-2.258;2022-09-09T16:50:35;14.90;85.90
44533;DHT22;48673;53.016;-2.258;2022-09-09T16:53:09;14.80;86.10
44533;DHT22;48673;53.016;-2.258;2022-09-09T16:59:01;14.80;87.00
44533;DHT22;48673;53.016;-2.258;2022-09-09T17:01:56;14.90;87.40
44533;DHT22;48673;53.016;-2.258;2022-09-09T17:04:28;14.90;87.50
44533;DHT22;48673;53.016;-2.258;2022-09-09T17:07:22;15.10;87.80
44533;DHT22;48673;53.016;-2.258;2022-09-09T17:10:06;15.20;87.80
44533;DHT22;48673;53.016;-2.258;2022-09-09T17:12:52;15.30;87.90
44533;DHT22;48673;53.016;-2.258;2022-09-09T17:15:48;15.30;87.70
44533;DHT22;48673;53.016;-2.258;2022-09-09T17:18:36;15.30;87.90
44533;DHT22;48673;53.016;-2.258;2022-09-09T17:21:12;15.40;87.80
44533;DHT22;48673;53.016;-2.258;2022-09-09T17:23:54;15.40;87.90
44533;DHT22;48673;53.016;-2.258;2022-09-09T17:26:25;15.40;87.80
44533;DHT22;48673;53.016;-2.258;2022-09-09T17:28:57;15.50;87.90
44533;DHT22;48673;53.016;-2.258;2022-09-09T17:31:27;15.50;88.00
44533;DHT22;48673;53.016;-2.258;2022-09-09T17:34:11;15.60;88.30
44533;DHT22;48673;53.016;-2.258;2022-09-09T17:36:39;16.10;88.80
44533;DHT22;48673;53.016;-2.258;2022-09-09T17:39:18;16.50;88.30
44533;DHT22;48673;53.016;-2.258;2022-09-09T17:41:46;16.70;87.70
44533;DHT22;48673;53.016;-2.258;2022-09-09T17:44:14;16.80;87.50
44533;DHT22;48673;53.016;-2.258;2022-09-09T17:46:43;16.90;87.30
44533;DHT22;48673;53.016;-2.258;2022-09-09T17:49:15;16.90;87.00